createdAt,value
2022-12-06T00:02:15.530Z,192.43
2022-12-06T00:04:42.618Z,159.88
2022-12-06T00:07:11.778Z,207.02
2022-12-06T00:09:39.024Z,198.13
2022-12-06T00:12:06.187Z,219.15
2022-12-06T00:14:33.208Z,211.85
2022-12-06T00:17:00.300Z,225.13
2022-12-06T00:19:27.536Z,214.88
2022-12-06T00:21:54.949Z,181.65
2022-12-06T00:24:23.110Z,183.40
2022-12-06T00:26:51.299Z,266.20
2022-12-06T00:29:21.762Z,179.57
2022-12-06T00:31:49.541Z,202.85
2022-12-06T00:34:17.150Z,187.25
2022-12-06T00:36:44.270Z,230.13
2022-12-06T00:39:16.818Z,196.50
2022-12-06T00:41:44.524Z,231.43
2022-12-06T00:44:12.196Z,173.10
2022-12-06T00:46:39.627Z,197.13
2022-12-06T00:49:08.090Z,182.13
2022-12-06T00:51:35.977Z,244.95
2022-12-06T00:54:03.289Z,205.63
2022-12-06T00:56:30.653Z,247.93
2022-12-06T00:58:57.796Z,229.90
2022-12-06T01:01:27.517Z,218.82
2022-12-06T01:03:57.508Z,231.48
2022-12-06T01:06:28.303Z,195.07
2022-12-06T01:08:57.452Z,134.50
2022-12-06T01:11:25.908Z,204.05
2022-12-06T01:13:53.943Z,208.68
2022-12-06T01:16:24.444Z,197.52
2022-12-06T01:18:56.778Z,197.82
2022-12-06T01:21:25.076Z,226.48
2022-12-06T01:23:53.267Z,298.95
2022-12-06T01:26:29.423Z,219.75
2022-12-06T01:28:59.034Z,409.58
2022-12-06T01:31:29.685Z,232.40
2022-12-06T01:34:01.508Z,460.25
2022-12-06T01:36:28.589Z,207.45
2022-12-06T01:38:57.654Z,319.65
2022-12-06T01:41:26.729Z,332.27
2022-12-06T01:43:55.685Z,290.95
2022-12-06T01:46:43.374Z,325.20
2022-12-06T01:49:19.213Z,341.92
2022-12-06T01:52:00.189Z,313.65
2022-12-06T01:54:27.808Z,341.52
2022-12-06T01:56:57.237Z,433.23
2022-12-06T01:59:25.783Z,276.17
2022-12-06T02:01:53.471Z,228.43
2022-12-06T02:04:21.748Z,239.88
2022-12-06T02:06:50.641Z,268.73
2022-12-06T02:09:18.750Z,262.55
2022-12-06T02:11:47.564Z,264.17
2022-12-06T02:14:20.303Z,255.77
2022-12-06T02:17:01.373Z,443.80
2022-12-06T02:19:43.488Z,461.75
2022-12-06T02:22:23.374Z,409.50
2022-12-06T02:24:50.349Z,411.05
2022-12-06T02:27:49.577Z,215.23
2022-12-06T02:30:28.756Z,174.98
2022-12-06T02:33:08.453Z,439.30
2022-12-06T02:35:39.337Z,259.75
2022-12-06T02:38:18.778Z,256.38
2022-12-06T02:40:50.689Z,230.93
2022-12-06T02:43:24.377Z,286.25
2022-12-06T02:45:57.318Z,299.48
2022-12-06T02:48:26.674Z,173.40
2022-12-06T02:51:04.880Z,217.50
2022-12-06T02:53:34.359Z,259.02
2022-12-06T02:56:02.348Z,383.77
2022-12-06T02:58:34.091Z,229.93
2022-12-06T03:01:03.135Z,286.50
2022-12-06T03:03:46.693Z,351.00
2022-12-06T03:06:22.958Z,372.25
2022-12-06T03:09:05.282Z,566.63
2022-12-06T03:12:18.193Z,334.48
2022-12-06T03:14:56.169Z,348.30
2022-12-06T03:17:40.029Z,199.75
2022-12-06T03:20:52.077Z,495.05
2022-12-06T03:23:26.311Z,298.17
2022-12-06T03:25:59.977Z,300.63
2022-12-06T03:28:29.100Z,331.95
2022-12-06T03:31:02.687Z,248.15
2022-12-06T03:33:32.436Z,217.48
2022-12-06T03:36:00.622Z,201.90
2022-12-06T03:38:54.143Z,329.83
2022-12-06T03:41:25.897Z,214.90
2022-12-06T03:43:53.495Z,287.73
2022-12-06T03:46:44.530Z,380.48
2022-12-06T03:49:17.658Z,383.85
2022-12-06T03:51:45.532Z,391.90
2022-12-06T03:54:13.157Z,402.27
2022-12-06T03:56:40.199Z,232.82
2022-12-06T03:59:11.426Z,305.92
2022-12-06T04:01:39.409Z,292.52
2022-12-06T04:04:06.815Z,343.70
2022-12-06T04:06:33.864Z,345.60
2022-12-06T04:09:19.564Z,623.83
2022-12-06T04:11:47.198Z,410.70
2022-12-06T04:14:14.239Z,416.88
2022-12-06T04:16:59.762Z,448.98
2022-12-06T04:19:26.884Z,390.05
2022-12-06T04:22:12.608Z,258.90
2022-12-06T04:24:39.848Z,238.13
2022-12-06T04:27:25.728Z,298.10
2022-12-06T04:30:11.257Z,283.50
2022-12-06T04:32:57.049Z,300.08
2022-12-06T04:35:42.530Z,269.35
2022-12-06T04:38:28.228Z,424.58
2022-12-06T04:40:55.273Z,238.27
2022-12-06T04:43:41.051Z,275.70
2022-12-06T04:46:09.244Z,266.02
2022-12-06T04:48:36.478Z,261.52
2022-12-06T04:51:03.788Z,396.98
2022-12-06T04:53:31.075Z,239.00
2022-12-06T04:55:58.467Z,193.02
2022-12-06T04:58:25.512Z,380.73
2022-12-06T05:00:54.940Z,327.27
2022-12-06T05:03:22.079Z,304.63
2022-12-06T05:05:49.914Z,385.80
2022-12-06T05:08:16.972Z,407.08
2022-12-06T05:10:48.457Z,337.90
2022-12-06T05:13:17.620Z,355.20
2022-12-06T05:15:52.733Z,224.32
2022-12-06T05:18:20.140Z,209.07
2022-12-06T05:20:47.548Z,316.67
2022-12-06T05:23:14.992Z,217.35
2022-12-06T05:25:42.063Z,308.23
2022-12-06T05:28:09.428Z,287.92
2022-12-06T05:30:36.497Z,274.75
2022-12-06T05:33:03.533Z,443.65
2022-12-06T05:35:30.581Z,252.65
2022-12-06T05:37:57.558Z,304.33
2022-12-06T05:40:24.631Z,280.35
2022-12-06T05:42:51.760Z,264.42
2022-12-06T05:45:19.506Z,190.07
2022-12-06T05:47:46.559Z,438.45
2022-12-06T05:50:13.788Z,287.05
2022-12-06T05:52:41.276Z,379.13
2022-12-06T05:55:08.671Z,261.98
2022-12-06T05:57:35.757Z,265.83
2022-12-06T06:00:04.761Z,364.88
2022-12-06T06:02:33.657Z,323.85
2022-12-06T06:05:00.781Z,343.55
2022-12-06T06:07:27.879Z,192.95
2022-12-06T06:09:54.977Z,274.65
2022-12-06T06:12:22.064Z,331.10
2022-12-06T06:14:50.019Z,157.95
2022-12-06T06:17:17.342Z,246.52
2022-12-06T06:19:47.578Z,348.50
2022-12-06T06:22:23.286Z,246.32
2022-12-06T06:24:51.763Z,268.55
2022-12-06T06:27:18.908Z,398.85
2022-12-06T06:29:45.972Z,718.80
2022-12-06T06:32:13.943Z,319.23
2022-12-06T06:34:41.030Z,228.00
2022-12-06T06:37:08.025Z,277.08
2022-12-06T06:39:35.067Z,198.57
2022-12-06T06:42:02.178Z,218.80
2022-12-06T06:44:29.303Z,246.25
2022-12-06T06:46:56.315Z,301.75
2022-12-06T06:49:23.390Z,446.45
2022-12-06T06:51:50.990Z,588.00
2022-12-06T06:54:18.488Z,179.05
2022-12-06T06:56:45.545Z,145.90
2022-12-06T06:59:12.517Z,214.98
2022-12-06T07:01:39.675Z,296.48
2022-12-06T07:04:06.717Z,323.88
2022-12-06T07:06:33.684Z,282.30
2022-12-06T07:09:00.721Z,999.33
2022-12-06T07:11:27.741Z,164.40
2022-12-06T07:13:54.808Z,430.55
2022-12-06T07:16:21.963Z,485.75
2022-12-06T07:18:49.211Z,242.48
2022-12-06T07:21:17.330Z,275.88
2022-12-06T07:23:44.474Z,329.77
2022-12-06T07:26:15.286Z,168.68
2022-12-06T07:28:44.828Z,296.17
2022-12-06T07:31:23.468Z,263.27
2022-12-06T07:33:55.752Z,313.52
2022-12-06T07:36:23.874Z,522.85
2022-12-06T07:38:55.877Z,197.05
2022-12-06T07:41:43.784Z,683.30
2022-12-06T07:44:38.785Z,722.17
2022-12-06T07:47:05.845Z,238.68
2022-12-06T07:49:32.908Z,520.65
2022-12-06T07:52:00.591Z,522.78
2022-12-06T07:54:27.641Z,481.88
2022-12-06T07:56:56.490Z,155.80
2022-12-06T07:59:24.915Z,367.40
2022-12-06T08:01:52.910Z,492.10
2022-12-06T08:04:20.750Z,166.77
2022-12-06T08:06:47.810Z,207.35
2022-12-06T08:09:15.086Z,213.88
2022-12-06T08:11:42.166Z,146.25
2022-12-06T08:14:11.338Z,421.42
2022-12-06T08:16:41.385Z,286.10
2022-12-06T08:19:08.912Z,260.20
2022-12-06T08:21:35.903Z,413.75
2022-12-06T08:24:04.313Z,217.30
2022-12-06T08:26:31.379Z,220.90
2022-12-06T08:29:00.804Z,341.67
2022-12-06T08:31:27.936Z,176.20
2022-12-06T08:33:54.931Z,159.07
2022-12-06T08:36:23.919Z,355.88
2022-12-06T08:38:52.307Z,253.95
2022-12-06T08:41:53.230Z,430.73
2022-12-06T08:44:20.467Z,202.65
2022-12-06T08:46:48.042Z,320.77
2022-12-06T08:49:16.835Z,395.23
2022-12-06T08:51:44.607Z,545.67
2022-12-06T08:54:14.880Z,221.13
2022-12-06T08:59:09.360Z,137.60
2022-12-06T09:01:43.408Z,189.48
2022-12-06T09:04:12.818Z,345.92
2022-12-06T09:06:42.177Z,269.70
2022-12-06T09:09:10.461Z,481.37
2022-12-06T09:11:38.490Z,342.63
2022-12-06T09:14:07.436Z,544.30
2022-12-06T09:16:34.602Z,505.98
2022-12-06T09:19:01.679Z,389.15
2022-12-06T09:21:30.754Z,191.05
2022-12-06T09:23:59.317Z,296.10
2022-12-06T09:26:27.742Z,283.95
2022-12-06T09:28:56.992Z,245.82
2022-12-06T09:31:25.214Z,160.35
2022-12-06T09:33:52.983Z,193.52
2022-12-06T09:36:25.897Z,200.60
2022-12-06T09:39:11.299Z,146.68
2022-12-06T09:41:56.369Z,272.48
2022-12-06T09:45:01.659Z,200.52
2022-12-06T09:47:34.698Z,252.90
2022-12-06T09:50:32.859Z,157.23
2022-12-06T09:53:23.201Z,291.30
2022-12-06T09:58:31.729Z,139.40
2022-12-06T10:01:07.722Z,228.15
2022-12-06T10:04:22.847Z,312.90
2022-12-06T10:06:49.821Z,392.63
2022-12-06T10:10:03.671Z,194.05
2022-12-06T10:12:57.958Z,264.65
2022-12-06T10:15:40.523Z,129.93
2022-12-06T10:18:40.122Z,281.25
2022-12-06T10:21:18.353Z,257.27
2022-12-06T10:24:08.532Z,175.70
2022-12-06T10:26:51.667Z,174.68
2022-12-06T10:29:40.667Z,327.27
2022-12-06T10:32:26.074Z,130.32
2022-12-06T10:34:56.848Z,241.13
2022-12-06T10:37:44.875Z,175.23
2022-12-06T10:44:13.508Z,154.18
2022-12-06T10:47:03.934Z,170.55
2022-12-06T10:49:39.828Z,113.55
2022-12-06T10:52:30.155Z,131.13
2022-12-06T10:57:43.210Z,143.68
2022-12-06T11:00:20.807Z,134.60
2022-12-06T11:03:00.580Z,140.80
2022-12-06T11:05:34.732Z,101.77
2022-12-06T11:08:17.931Z,104.10
2022-12-06T11:10:46.679Z,128.20
2022-12-06T11:13:13.635Z,145.52
2022-12-06T11:15:49.150Z,123.95
2022-12-06T11:18:17.903Z,200.07
2022-12-06T11:20:53.729Z,125.72
2022-12-06T11:23:50.999Z,105.82
2022-12-06T11:26:31.109Z,144.57
2022-12-06T11:29:06.094Z,133.93
2022-12-06T11:31:36.865Z,184.98
2022-12-06T11:34:06.582Z,152.15
2022-12-06T11:36:33.830Z,151.85
2022-12-06T11:39:01.208Z,158.18
2022-12-06T11:41:33.763Z,182.90
2022-12-06T11:44:01.008Z,157.30
2022-12-06T11:46:29.233Z,201.63
2022-12-06T11:49:04.018Z,198.27
2022-12-06T11:51:31.121Z,197.40
2022-12-06T11:54:04.434Z,159.65
2022-12-06T11:56:39.363Z,265.58
2022-12-06T11:59:20.739Z,196.63
2022-12-06T12:01:52.354Z,176.25
2022-12-06T12:04:49.750Z,223.65
2022-12-06T12:07:19.188Z,120.30
2022-12-06T12:09:50.920Z,128.55
2022-12-06T12:13:01.267Z,130.10
2022-12-06T12:17:58.873Z,155.88
2022-12-06T12:20:28.848Z,176.43
2022-12-06T12:23:05.270Z,158.88
2022-12-06T12:25:34.922Z,185.15
2022-12-06T12:28:03.616Z,144.98
2022-12-06T12:30:39.279Z,129.98
2022-12-06T12:33:06.299Z,106.95
2022-12-06T12:35:44.987Z,110.85
2022-12-06T12:38:11.955Z,211.60
2022-12-06T12:40:42.611Z,157.20
2022-12-06T12:43:12.381Z,93.60
2022-12-06T12:46:02.776Z,172.73
2022-12-06T12:48:30.315Z,145.88
2022-12-06T12:51:06.488Z,129.45
2022-12-06T12:53:38.479Z,111.13
2022-12-06T12:56:20.910Z,129.10
2022-12-06T12:58:51.497Z,201.63
2022-12-06T13:01:24.374Z,101.40
2022-12-06T13:04:18.957Z,140.60
2022-12-06T13:06:58.427Z,145.23
2022-12-06T13:09:28.288Z,135.65
2022-12-06T13:12:02.609Z,127.00
2022-12-06T13:14:30.589Z,136.50
2022-12-06T13:17:01.052Z,135.75
2022-12-06T13:19:36.939Z,118.80
2022-12-06T13:22:06.610Z,157.32
2022-12-06T13:24:36.647Z,111.43
2022-12-06T13:27:17.946Z,89.13
2022-12-06T13:29:58.902Z,99.53
2022-12-06T13:32:53.254Z,90.13
2022-12-06T13:35:22.982Z,83.75
2022-12-06T13:38:26.135Z,94.43
2022-12-06T13:40:55.527Z,99.00
2022-12-06T13:43:25.317Z,123.97
2022-12-06T13:46:12.644Z,102.65
2022-12-06T13:48:55.371Z,100.55
2022-12-06T13:51:31.259Z,108.35
2022-12-06T13:54:07.206Z,91.50
2022-12-06T13:56:34.202Z,95.88
2022-12-06T13:59:05.130Z,87.95
2022-12-06T14:01:44.848Z,102.63
2022-12-06T14:04:24.155Z,79.30
2022-12-06T14:09:50.245Z,89.35
2022-12-06T14:12:21.430Z,62.65
2022-12-06T14:14:56.922Z,127.10
2022-12-06T14:17:59.320Z,90.15
2022-12-06T14:20:26.203Z,88.35
2022-12-06T14:22:53.353Z,85.25
2022-12-06T14:25:22.082Z,101.60
2022-12-06T14:27:52.927Z,91.97
2022-12-06T14:30:26.339Z,98.97
2022-12-06T14:32:55.962Z,94.55
2022-12-06T14:35:30.190Z,80.30
2022-12-06T14:38:02.978Z,88.80
2022-12-06T14:40:59.446Z,101.15
2022-12-06T14:43:29.701Z,71.40
2022-12-06T14:48:26.299Z,95.07
2022-12-06T14:50:59.561Z,96.10
2022-12-06T14:53:31.259Z,90.05
2022-12-06T14:56:23.046Z,71.68
2022-12-06T14:58:50.148Z,84.40
2022-12-06T15:01:21.448Z,83.47
2022-12-06T15:04:09.094Z,67.03
2022-12-06T15:06:38.099Z,86.40
2022-12-06T15:09:13.408Z,118.53
2022-12-06T15:12:01.964Z,112.57
2022-12-06T15:14:46.990Z,91.63
2022-12-06T15:17:14.009Z,105.95
2022-12-06T15:19:47.499Z,124.47
2022-12-06T15:22:25.271Z,78.97
2022-12-06T15:24:57.946Z,73.45
2022-12-06T15:27:27.189Z,114.47
2022-12-06T15:29:54.650Z,103.95
2022-12-06T15:32:24.089Z,84.97
2022-12-06T15:34:51.119Z,73.53
2022-12-06T15:40:05.917Z,67.70
2022-12-06T15:42:33.002Z,74.50
2022-12-06T15:45:00.283Z,74.63
2022-12-06T15:47:27.480Z,79.18
2022-12-06T15:49:58.410Z,72.15
2022-12-06T15:52:26.947Z,76.03
2022-12-06T15:54:54.127Z,72.45
2022-12-06T15:57:21.172Z,70.70
2022-12-06T15:59:48.199Z,67.70
2022-12-06T16:02:17.299Z,66.18
2022-12-06T16:04:45.543Z,85.45
2022-12-06T16:07:19.131Z,104.43
2022-12-06T16:09:47.098Z,83.32
2022-12-06T16:12:14.077Z,75.22
2022-12-06T16:14:41.248Z,88.28
2022-12-06T16:17:08.768Z,83.55
2022-12-06T16:19:54.170Z,92.97
2022-12-06T16:22:41.132Z,60.15
2022-12-06T16:25:08.556Z,66.07
2022-12-06T16:27:35.719Z,57.15
2022-12-06T16:30:04.935Z,65.72
2022-12-06T16:32:31.979Z,54.00
2022-12-06T16:34:59.243Z,51.45
2022-12-06T16:37:26.627Z,74.25
2022-12-06T16:39:53.626Z,50.05
2022-12-06T16:42:20.645Z,115.18
2022-12-06T16:44:53.716Z,78.13
2022-12-06T16:49:49.810Z,70.25
2022-12-06T16:52:17.499Z,61.78
2022-12-06T16:54:44.587Z,59.25
2022-12-06T16:57:12.878Z,71.10
2022-12-06T16:59:40.737Z,83.35
2022-12-06T17:02:26.728Z,58.03
2022-12-06T17:04:54.839Z,71.03
2022-12-06T17:07:21.957Z,91.75
2022-12-06T17:09:49.166Z,111.57
2022-12-06T17:12:16.273Z,102.72
2022-12-06T17:14:43.728Z,76.07
2022-12-06T17:17:15.849Z,63.63
2022-12-06T17:19:43.630Z,102.13
2022-12-06T17:22:12.338Z,88.93
2022-12-06T17:24:39.730Z,92.43
2022-12-06T17:27:09.199Z,102.57
2022-12-06T17:29:36.887Z,81.38
2022-12-06T17:32:04.039Z,83.35
2022-12-06T17:34:31.411Z,65.68
2022-12-06T17:36:59.151Z,91.22
2022-12-06T17:39:26.689Z,63.35
2022-12-06T17:42:12.339Z,93.13
2022-12-06T17:44:40.187Z,93.47
2022-12-06T17:47:07.522Z,81.13
2022-12-06T17:49:36.331Z,89.13
2022-12-06T17:52:03.574Z,70.47
2022-12-06T17:54:30.726Z,65.88
2022-12-06T17:56:57.836Z,81.93
2022-12-06T17:59:28.079Z,77.20
2022-12-06T18:04:47.716Z,56.88
2022-12-06T18:07:15.738Z,72.93
2022-12-06T18:09:42.870Z,83.28
2022-12-06T18:12:11.812Z,64.32
2022-12-06T18:14:38.870Z,69.95
2022-12-06T18:17:05.918Z,52.97
2022-12-06T18:19:33.670Z,61.00
2022-12-06T18:22:00.728Z,70.05
2022-12-06T18:24:33.467Z,50.22
2022-12-06T18:27:02.598Z,56.72
2022-12-06T18:29:29.770Z,46.13
2022-12-06T18:31:57.418Z,36.25
2022-12-06T18:34:24.897Z,35.45
2022-12-06T18:36:52.327Z,51.63
2022-12-06T18:39:24.827Z,45.10
2022-12-06T18:41:54.086Z,53.83
2022-12-06T18:44:21.746Z,78.30
2022-12-06T18:46:48.826Z,50.28
2022-12-06T18:49:15.960Z,52.38
2022-12-06T18:51:43.028Z,53.72
2022-12-06T18:54:14.024Z,67.32
2022-12-06T18:56:42.018Z,75.07
2022-12-06T18:59:10.830Z,109.75
2022-12-06T19:01:39.686Z,45.33
2022-12-06T19:04:08.389Z,41.40
2022-12-06T19:06:37.899Z,85.45
2022-12-06T19:09:07.785Z,68.18
2022-12-06T19:11:39.558Z,60.30
2022-12-06T19:14:07.119Z,53.60
2022-12-06T19:16:40.568Z,43.10
2022-12-06T19:19:15.743Z,38.40
2022-12-06T19:21:45.081Z,64.10
2022-12-06T19:24:14.062Z,51.55
2022-12-06T19:26:41.158Z,35.38
2022-12-06T19:29:08.492Z,33.50
2022-12-06T19:31:36.091Z,37.70
2022-12-06T19:34:03.419Z,37.35
2022-12-06T19:36:31.848Z,30.30
2022-12-06T19:39:01.198Z,30.40
2022-12-06T19:41:28.922Z,29.80
2022-12-06T19:44:14.887Z,26.77
2022-12-06T19:46:43.399Z,33.30
2022-12-06T19:49:11.669Z,34.72
2022-12-06T19:51:41.699Z,29.92
2022-12-06T19:54:10.609Z,26.67
2022-12-06T19:56:39.027Z,29.27
2022-12-06T19:59:11.893Z,34.60
2022-12-06T20:01:48.970Z,35.22
2022-12-06T20:04:22.235Z,35.85
2022-12-06T20:06:50.460Z,28.83
2022-12-06T20:09:18.918Z,26.38
2022-12-06T20:12:02.640Z,25.45
2022-12-06T20:14:33.163Z,32.92
2022-12-06T20:19:27.368Z,26.63
2022-12-06T20:21:54.461Z,39.72
2022-12-06T20:24:22.477Z,37.85
2022-12-06T20:26:51.742Z,27.65
2022-12-06T20:29:19.971Z,31.73
2022-12-06T20:31:50.365Z,35.90
2022-12-06T20:34:18.291Z,37.13
2022-12-06T20:36:45.428Z,32.95
2022-12-06T20:39:35.496Z,35.80
2022-12-06T20:42:03.668Z,30.45
2022-12-06T20:44:31.048Z,28.00
2022-12-06T20:46:58.297Z,30.45
2022-12-06T20:49:28.332Z,32.50
2022-12-06T20:51:55.708Z,33.03
2022-12-06T20:54:22.790Z,29.10
2022-12-06T20:56:53.667Z,26.50
2022-12-06T20:59:21.343Z,28.50
2022-12-06T21:01:48.581Z,24.30
2022-12-06T21:04:16.112Z,27.58
2022-12-06T21:06:43.342Z,30.30
2022-12-06T21:09:10.490Z,23.58
2022-12-06T21:11:37.862Z,22.95
2022-12-06T21:14:06.082Z,34.80
2022-12-06T21:16:35.191Z,24.92
2022-12-06T21:19:08.275Z,27.95
2022-12-06T21:21:38.098Z,24.50
2022-12-06T21:24:07.932Z,27.45
2022-12-06T21:26:35.402Z,30.77
2022-12-06T21:29:02.669Z,22.88
2022-12-06T21:31:32.198Z,24.90
2022-12-06T21:33:59.428Z,24.58
2022-12-06T21:36:26.622Z,23.67
2022-12-06T21:38:54.073Z,19.65
2022-12-06T21:41:22.410Z,22.55
2022-12-06T21:43:50.046Z,20.75
2022-12-06T21:46:20.466Z,29.15
2022-12-06T21:48:51.932Z,24.92
2022-12-06T21:51:20.108Z,21.63
2022-12-06T21:53:47.613Z,21.63
2022-12-06T21:56:18.303Z,23.35
2022-12-06T21:58:46.201Z,19.10
2022-12-06T22:01:15.987Z,18.33
2022-12-06T22:03:43.727Z,18.73
2022-12-06T22:06:12.479Z,18.95
2022-12-06T22:08:41.172Z,17.45
2022-12-06T22:11:19.446Z,19.05
2022-12-06T22:13:48.329Z,16.58
2022-12-06T22:16:16.358Z,18.17
2022-12-06T22:18:45.769Z,20.70
2022-12-06T22:21:16.831Z,18.30
2022-12-06T22:23:44.698Z,15.07
2022-12-06T22:26:15.460Z,16.15
2022-12-06T22:28:42.587Z,22.75
2022-12-06T22:31:12.507Z,17.42
2022-12-06T22:33:40.330Z,17.48
2022-12-06T22:36:08.818Z,15.80
2022-12-06T22:38:36.249Z,16.23
2022-12-06T22:41:04.005Z,17.92
2022-12-06T22:43:31.459Z,22.48
2022-12-06T22:46:11.350Z,20.65
2022-12-06T22:48:39.218Z,17.98
2022-12-06T22:51:18.072Z,24.15
2022-12-06T22:53:47.789Z,21.83
2022-12-06T22:56:15.821Z,20.25
2022-12-06T22:58:42.897Z,20.50
2022-12-06T23:01:16.963Z,18.48
2022-12-06T23:03:49.102Z,20.77
2022-12-06T23:06:18.158Z,19.52
2022-12-06T23:08:45.990Z,18.83
2022-12-06T23:11:22.026Z,17.58
2022-12-06T23:13:49.092Z,25.75
2022-12-06T23:16:21.327Z,21.70
2022-12-06T23:18:48.808Z,22.98
2022-12-06T23:21:21.547Z,17.52
2022-12-06T23:23:55.003Z,23.08
2022-12-06T23:26:25.361Z,23.88
2022-12-06T23:28:52.800Z,22.23
2022-12-06T23:31:25.458Z,22.05
2022-12-06T23:34:01.359Z,19.42
2022-12-06T23:36:30.647Z,29.13
2022-12-06T23:38:58.083Z,18.33
2022-12-06T23:41:27.506Z,24.48
2022-12-06T23:43:55.728Z,28.40
2022-12-06T23:46:25.642Z,20.80
2022-12-06T23:48:53.417Z,26.40
2022-12-06T23:51:25.889Z,16.75
2022-12-06T23:53:57.624Z,19.70
2022-12-06T23:56:29.151Z,22.33
2022-12-06T23:58:57.152Z,21.90
